createdAt,value
2023-04-11T00:00:35.090Z,13.46
2023-04-11T00:03:02.941Z,13.66
2023-04-11T00:05:34.336Z,14.72
2023-04-11T00:08:02.039Z,13.96
2023-04-11T00:10:29.397Z,14.52
2023-04-11T00:12:57.752Z,15.01
2023-04-11T00:15:25.380Z,15.07
2023-04-11T00:17:54.272Z,15.28
2023-04-11T00:20:22.068Z,14.88
2023-04-11T00:22:49.845Z,14.31
2023-04-11T00:25:17.926Z,14.15
2023-04-11T00:27:45.685Z,13.90
2023-04-11T00:30:14.877Z,14.13
2023-04-11T00:32:42.283Z,13.89
2023-04-11T00:35:09.829Z,12.79
2023-04-11T00:37:37.403Z,13.06
2023-04-11T00:40:06.935Z,12.75
2023-04-11T00:42:34.517Z,13.16
2023-04-11T00:45:01.844Z,12.77
2023-04-11T00:47:29.768Z,13.19
2023-04-11T00:49:56.896Z,13.93
2023-04-11T00:52:24.739Z,13.92
2023-04-11T00:54:52.298Z,14.33
2023-04-11T00:57:20.033Z,14.26
2023-04-11T00:59:51.425Z,14.57
2023-04-11T01:02:19.654Z,14.48
2023-04-11T01:04:47.100Z,14.21
2023-04-11T01:07:15.615Z,14.01
2023-04-11T01:09:43.256Z,14.72
2023-04-11T01:12:12.018Z,15.01
2023-04-11T01:14:40.096Z,15.25
2023-04-11T01:17:08.417Z,14.30
2023-04-11T01:19:35.600Z,14.22
2023-04-11T01:22:03.548Z,13.48
2023-04-11T01:24:31.750Z,14.05
2023-04-11T01:26:59.384Z,14.62
2023-04-11T01:29:26.515Z,13.53
2023-04-11T01:31:53.639Z,13.44
2023-04-11T01:34:23.302Z,14.01
2023-04-11T01:36:50.574Z,14.47
2023-04-11T01:39:17.734Z,14.74
2023-04-11T01:41:46.445Z,14.46
2023-04-11T01:44:13.948Z,14.27
2023-04-11T01:46:41.737Z,14.57
2023-04-11T01:49:08.958Z,14.54
2023-04-11T01:51:36.618Z,14.33
2023-04-11T01:54:03.862Z,14.36
2023-04-11T01:56:31.809Z,13.83
2023-04-11T01:58:59.451Z,14.09
2023-04-11T02:01:27.032Z,14.22
2023-04-11T02:03:54.475Z,13.97
2023-04-11T02:06:21.712Z,13.83
2023-04-11T02:08:48.845Z,14.09
2023-04-11T02:11:15.990Z,14.34
2023-04-11T02:13:45.156Z,13.21
2023-04-11T02:16:18.492Z,13.08
2023-04-11T02:18:46.567Z,14.09
2023-04-11T02:21:13.834Z,13.41
2023-04-11T02:23:41.140Z,14.17
2023-04-11T02:26:08.284Z,14.44
2023-04-11T02:28:36.966Z,14.24
2023-04-11T02:31:04.459Z,14.76
2023-04-11T02:33:32.663Z,14.66
2023-04-11T02:35:59.831Z,14.77
2023-04-11T02:38:27.931Z,14.82
2023-04-11T02:40:55.025Z,15.15
2023-04-11T02:43:22.246Z,15.00
2023-04-11T02:45:49.828Z,14.93
2023-04-11T02:48:18.285Z,13.23
2023-04-11T02:50:46.426Z,13.24
2023-04-11T02:53:13.642Z,13.83
2023-04-11T02:55:47.078Z,13.49
2023-04-11T02:58:18.256Z,13.87
2023-04-11T03:00:49.795Z,13.31
2023-04-11T03:03:17.362Z,14.28
2023-04-11T03:05:47.480Z,14.44
2023-04-11T03:08:18.583Z,14.13
2023-04-11T03:10:51.476Z,14.14
2023-04-11T03:13:19.708Z,14.16
2023-04-11T03:15:46.809Z,13.95
2023-04-11T03:18:14.808Z,13.96
2023-04-11T03:20:45.161Z,13.70
2023-04-11T03:23:14.592Z,13.86
2023-04-11T03:25:41.918Z,14.62
2023-04-11T03:28:09.156Z,14.27
2023-04-11T03:30:37.777Z,13.82
2023-04-11T03:33:04.941Z,13.89
2023-04-11T03:35:32.223Z,14.11
2023-04-11T03:38:01.290Z,14.08
2023-04-11T03:40:28.686Z,13.39
2023-04-11T03:43:05.422Z,14.33
2023-04-11T03:45:35.354Z,14.47
2023-04-11T03:48:05.856Z,14.31
2023-04-11T03:50:46.392Z,14.71
2023-04-11T03:53:15.647Z,15.24
2023-04-11T03:55:45.315Z,14.71
2023-04-11T03:58:16.443Z,14.45
2023-04-11T04:00:43.907Z,14.20
2023-04-11T04:03:11.239Z,13.98
2023-04-11T04:05:41.607Z,14.37
2023-04-11T04:08:09.736Z,14.42
2023-04-11T04:10:47.346Z,14.95
2023-04-11T04:13:15.166Z,14.68
2023-04-11T04:15:51.809Z,13.89
2023-04-11T04:18:23.690Z,13.73
2023-04-11T04:20:51.439Z,13.46
2023-04-11T04:23:20.052Z,14.30
2023-04-11T04:26:04.533Z,14.47
2023-04-11T04:28:33.461Z,13.61
2023-04-11T04:31:04.323Z,14.50
2023-04-11T04:33:38.512Z,14.05
2023-04-11T04:36:12.637Z,13.78
2023-04-11T04:38:42.401Z,14.09
2023-04-11T04:41:22.362Z,14.45
2023-04-11T04:43:58.552Z,14.11
2023-04-11T04:46:37.520Z,14.48
2023-04-11T04:49:07.229Z,14.36
2023-04-11T04:51:36.980Z,14.30
2023-04-11T04:54:05.251Z,14.42
2023-04-11T04:56:32.775Z,13.50
2023-04-11T04:59:00.226Z,14.27
2023-04-11T05:01:29.571Z,13.76
2023-04-11T05:04:00.208Z,14.38
2023-04-11T05:06:47.308Z,13.82
2023-04-11T05:09:16.527Z,13.25
2023-04-11T05:11:44.359Z,13.70
2023-04-11T05:14:11.544Z,14.01
2023-04-11T05:16:44.035Z,14.54
2023-04-11T05:19:11.333Z,14.68
2023-04-11T05:21:42.395Z,14.72
2023-04-11T05:24:09.576Z,14.84
2023-04-11T05:26:37.606Z,15.17
2023-04-11T05:29:06.846Z,14.89
2023-04-11T05:31:34.251Z,14.93
2023-04-11T05:34:02.453Z,16.00
2023-04-11T05:36:29.856Z,16.79
2023-04-11T05:38:56.927Z,16.45
2023-04-11T05:41:24.775Z,16.02
2023-04-11T05:43:52.024Z,16.36
2023-04-11T05:46:19.869Z,14.98
2023-04-11T05:48:47.576Z,16.03
2023-04-11T05:51:14.630Z,15.69
2023-04-11T05:53:41.757Z,16.18
2023-04-11T05:56:09.215Z,14.88
2023-04-11T05:58:39.846Z,15.53
2023-04-11T06:01:07.678Z,16.25
2023-04-11T06:03:34.990Z,17.29
2023-04-11T06:06:02.252Z,16.77
2023-04-11T06:08:29.479Z,16.24
2023-04-11T06:10:56.580Z,15.69
2023-04-11T06:13:23.730Z,15.32
2023-04-11T06:15:51.034Z,15.26
2023-04-11T06:18:18.156Z,15.69
2023-04-11T06:20:46.608Z,15.86
2023-04-11T06:23:13.977Z,15.79
2023-04-11T06:25:41.554Z,14.79
2023-04-11T06:28:08.590Z,15.28
2023-04-11T06:30:36.772Z,14.70
2023-04-11T06:33:03.942Z,14.48
2023-04-11T06:35:31.631Z,14.39
2023-04-11T06:37:58.874Z,14.86
2023-04-11T06:40:26.257Z,14.91
2023-04-11T06:42:53.286Z,15.32
2023-04-11T06:45:20.611Z,15.10
2023-04-11T06:47:47.811Z,15.08
2023-04-11T06:50:15.206Z,15.76
2023-04-11T06:52:42.327Z,15.13
2023-04-11T06:55:10.423Z,14.98
2023-04-11T06:57:37.534Z,14.91
2023-04-11T07:00:07.817Z,15.12
2023-04-11T07:02:39.718Z,15.19
2023-04-11T07:05:09.529Z,14.47
2023-04-11T07:07:36.993Z,15.06
2023-04-11T07:10:05.434Z,14.34
2023-04-11T07:12:32.508Z,14.92
2023-04-11T07:14:59.701Z,14.92
2023-04-11T07:17:26.837Z,14.72
2023-04-11T07:19:54.001Z,15.00
2023-04-11T07:22:21.161Z,15.79
2023-04-11T07:24:52.353Z,15.88
2023-04-11T07:27:19.801Z,15.74
2023-04-11T07:29:46.981Z,16.40
2023-04-11T07:32:14.072Z,16.07
2023-04-11T07:34:41.187Z,15.73
2023-04-11T07:37:08.481Z,15.79
2023-04-11T07:39:35.677Z,17.02
2023-04-11T07:42:02.961Z,16.89
2023-04-11T07:44:30.102Z,15.38
2023-04-11T07:46:57.305Z,14.89
2023-04-11T07:49:24.441Z,15.36
2023-04-11T07:51:51.536Z,15.85
2023-04-11T07:54:18.631Z,16.17
2023-04-11T07:56:45.835Z,15.12
2023-04-11T07:59:16.227Z,15.70
2023-04-11T08:01:43.691Z,16.49
2023-04-11T08:04:11.700Z,17.28
2023-04-11T08:06:38.992Z,16.84
2023-04-11T08:09:06.221Z,17.08
2023-04-11T08:11:33.410Z,18.01
2023-04-11T08:14:00.728Z,17.04
2023-04-11T08:16:27.971Z,18.04
2023-04-11T08:18:55.089Z,18.43
2023-04-11T08:21:23.948Z,17.69
2023-04-11T08:23:51.570Z,16.81
2023-04-11T08:26:19.136Z,18.38
2023-04-11T08:28:46.261Z,17.16
2023-04-11T08:31:13.698Z,16.49
2023-04-11T08:33:41.069Z,16.44
2023-04-11T08:36:10.678Z,16.26
2023-04-11T08:38:38.709Z,17.22
2023-04-11T08:41:06.429Z,18.29
2023-04-11T08:43:38.059Z,17.73
2023-04-11T08:46:05.408Z,18.26
2023-04-11T08:48:33.210Z,17.79
2023-04-11T08:51:00.448Z,18.20
2023-04-11T08:53:28.406Z,17.54
2023-04-11T08:55:55.587Z,17.84
2023-04-11T08:58:23.452Z,17.90
2023-04-11T09:00:50.789Z,17.91
2023-04-11T09:03:18.143Z,16.11
2023-04-11T09:05:46.851Z,17.68
2023-04-11T09:08:15.441Z,17.45
2023-04-11T09:10:45.867Z,17.98
2023-04-11T09:13:23.622Z,17.11
2023-04-11T09:16:06.484Z,18.93
2023-04-11T09:18:42.891Z,19.16
2023-04-11T09:21:15.121Z,18.53
2023-04-11T09:23:42.824Z,19.47
2023-04-11T09:26:11.541Z,18.19
2023-04-11T09:28:52.794Z,18.29
2023-04-11T09:31:38.532Z,18.53
2023-04-11T09:34:05.714Z,18.20
2023-04-11T09:36:32.981Z,17.82
2023-04-11T09:39:00.148Z,16.68
2023-04-11T09:41:32.537Z,16.73
2023-04-11T09:44:00.845Z,18.57
2023-04-11T09:46:28.085Z,16.68
2023-04-11T09:48:56.510Z,17.00
2023-04-11T09:51:35.792Z,17.92
2023-04-11T09:54:05.437Z,18.37
2023-04-11T09:56:35.029Z,18.60
2023-04-11T09:59:04.106Z,19.47
2023-04-11T10:01:31.535Z,18.93
2023-04-11T10:03:58.961Z,19.57
2023-04-11T10:06:41.240Z,20.00
2023-04-11T10:09:11.636Z,19.75
2023-04-11T10:11:45.026Z,18.98
2023-04-11T10:14:39.932Z,19.69
2023-04-11T10:17:23.672Z,18.39
2023-04-11T10:19:57.606Z,18.15
2023-04-11T10:22:46.792Z,18.00
2023-04-11T10:25:22.147Z,18.72
2023-04-11T10:27:53.408Z,17.92
2023-04-11T10:30:39.483Z,18.12
2023-04-11T10:33:17.834Z,18.84
2023-04-11T10:36:06.236Z,18.68
2023-04-11T10:38:48.928Z,18.90
2023-04-11T10:41:33.855Z,19.25
2023-04-11T10:44:19.878Z,18.87
2023-04-11T10:46:54.452Z,19.62
2023-04-11T10:49:40.746Z,19.07
2023-04-11T10:52:24.191Z,19.85
2023-04-11T10:54:53.462Z,18.89
2023-04-11T10:57:21.908Z,18.75
2023-04-11T10:59:51.731Z,18.59
2023-04-11T11:02:20.323Z,18.11
2023-04-11T11:04:49.319Z,18.26
2023-04-11T11:07:17.748Z,18.41
2023-04-11T11:09:51.578Z,19.30
2023-04-11T11:12:18.851Z,20.20
2023-04-11T11:14:47.234Z,18.10
2023-04-11T11:17:16.093Z,18.24
2023-04-11T11:19:47.644Z,18.03
2023-04-11T11:22:29.257Z,17.94
2023-04-11T11:25:07.923Z,17.77
2023-04-11T11:27:35.829Z,17.94
2023-04-11T11:30:12.389Z,17.62
2023-04-11T11:32:40.914Z,15.69
2023-04-11T11:35:13.981Z,17.14
2023-04-11T11:37:42.232Z,17.72
2023-04-11T11:40:13.502Z,17.59
2023-04-11T11:42:41.517Z,18.31
2023-04-11T11:45:34.968Z,16.94
2023-04-11T11:48:04.026Z,18.27
2023-04-11T11:50:32.856Z,18.81
2023-04-11T11:53:15.903Z,19.26
2023-04-11T11:55:43.774Z,19.41
2023-04-11T11:58:10.866Z,20.84
2023-04-11T12:00:42.077Z,21.93
2023-04-11T12:03:12.973Z,22.68
2023-04-11T12:05:43.676Z,21.96
2023-04-11T12:08:11.299Z,21.81
2023-04-11T12:10:41.004Z,22.40
2023-04-11T12:13:21.248Z,22.20
2023-04-11T12:15:54.316Z,20.97
2023-04-11T12:18:26.568Z,20.98
2023-04-11T12:20:54.575Z,20.59
2023-04-11T12:23:22.561Z,20.50
2023-04-11T12:25:50.320Z,19.50
2023-04-11T12:28:17.509Z,19.25
2023-04-11T12:30:45.063Z,19.16
2023-04-11T12:33:12.219Z,19.01
2023-04-11T12:35:39.770Z,19.53
2023-04-11T12:38:08.397Z,20.72
2023-04-11T12:40:36.207Z,21.39
2023-04-11T12:43:03.324Z,21.76
2023-04-11T12:45:31.067Z,21.34
2023-04-11T12:47:58.200Z,21.78
2023-04-11T12:50:26.451Z,21.75
2023-04-11T12:52:55.168Z,22.05
2023-04-11T12:55:23.845Z,21.23
2023-04-11T12:57:51.061Z,21.67
2023-04-11T13:00:19.507Z,21.90
2023-04-11T13:02:47.112Z,22.49
2023-04-11T13:05:15.804Z,22.52
2023-04-11T13:07:45.642Z,22.56
2023-04-11T13:10:14.585Z,22.20
2023-04-11T13:12:45.439Z,21.22
2023-04-11T13:15:15.545Z,20.86
2023-04-11T13:17:43.265Z,20.60
2023-04-11T13:20:11.919Z,21.09
2023-04-11T13:22:42.982Z,21.19
2023-04-11T13:25:11.318Z,21.48
2023-04-11T13:27:39.930Z,21.03
2023-04-11T13:30:10.880Z,20.77
2023-04-11T13:32:38.141Z,20.38
2023-04-11T13:35:06.194Z,19.97
2023-04-11T13:37:33.434Z,20.17
2023-04-11T13:40:00.878Z,20.30
2023-04-11T13:42:28.145Z,20.03
2023-04-11T13:44:55.243Z,20.32
2023-04-11T13:47:22.424Z,19.95
2023-04-11T13:49:49.456Z,20.09
2023-04-11T13:52:16.730Z,20.10
2023-04-11T13:54:43.805Z,19.90
2023-04-11T13:57:11.011Z,19.74
2023-04-11T13:59:38.117Z,19.80
2023-04-11T14:02:05.242Z,19.27
2023-04-11T14:04:32.582Z,18.97
2023-04-11T14:06:59.767Z,19.35
2023-04-11T14:09:26.976Z,19.26
2023-04-11T14:11:54.085Z,19.43
2023-04-11T14:14:21.196Z,19.81
2023-04-11T14:16:48.646Z,19.59
2023-04-11T14:19:16.065Z,19.57
2023-04-11T14:21:43.315Z,19.56
2023-04-11T14:24:10.573Z,20.04
2023-04-11T14:26:37.655Z,19.55
2023-04-11T14:29:05.066Z,19.53
2023-04-11T14:31:32.396Z,19.21
2023-04-11T14:33:59.699Z,19.42
2023-04-11T14:36:28.216Z,19.27
2023-04-11T14:38:55.706Z,19.16
2023-04-11T14:41:23.606Z,19.58
2023-04-11T14:43:50.874Z,19.25
2023-04-11T14:46:18.230Z,19.34
2023-04-11T14:48:45.745Z,19.91
2023-04-11T14:51:12.951Z,19.00
2023-04-11T14:53:40.005Z,19.74
2023-04-11T14:56:07.589Z,19.90
2023-04-11T14:58:34.751Z,20.55
2023-04-11T15:01:02.452Z,21.72
2023-04-11T15:03:29.951Z,22.65
2023-04-11T15:05:57.152Z,24.61
2023-04-11T15:08:24.326Z,24.25
2023-04-11T15:10:54.697Z,24.07
2023-04-11T15:13:22.937Z,23.90
2023-04-11T15:15:50.287Z,24.00
2023-04-11T15:18:28.252Z,23.61
2023-04-11T15:20:57.004Z,23.34
2023-04-11T15:23:24.415Z,24.01
2023-04-11T15:26:03.104Z,22.05
2023-04-11T15:28:36.182Z,23.22
2023-04-11T15:31:04.984Z,22.93
2023-04-11T15:33:32.332Z,22.19
2023-04-11T15:36:00.805Z,23.81
2023-04-11T15:38:28.873Z,23.15
2023-04-11T15:40:57.428Z,22.83
2023-04-11T15:43:24.866Z,22.35
2023-04-11T15:45:53.916Z,22.70
2023-04-11T15:48:21.261Z,22.33
2023-04-11T15:50:48.466Z,22.94
2023-04-11T15:53:15.649Z,23.30
2023-04-11T15:55:44.043Z,24.37
2023-04-11T15:58:11.416Z,23.04
2023-04-11T16:00:39.814Z,23.66
2023-04-11T16:03:08.862Z,22.76
2023-04-11T16:05:40.567Z,22.63
2023-04-11T16:08:08.224Z,23.05
2023-04-11T16:10:35.813Z,22.54
2023-04-11T16:13:03.306Z,22.90
2023-04-11T16:15:30.776Z,21.86
2023-04-11T16:17:58.188Z,21.78
2023-04-11T16:20:25.543Z,21.73
2023-04-11T16:22:52.799Z,21.36
2023-04-11T16:25:21.643Z,20.91
2023-04-11T16:27:49.117Z,20.29
2023-04-11T16:30:16.878Z,20.27
2023-04-11T16:32:44.556Z,20.09
2023-04-11T16:35:12.182Z,20.06
2023-04-11T16:37:39.265Z,19.78
2023-04-11T16:40:11.661Z,20.13
2023-04-11T16:42:39.812Z,20.33
2023-04-11T16:45:08.164Z,19.98
2023-04-11T16:47:35.524Z,19.74
2023-04-11T16:50:02.917Z,19.63
2023-04-11T16:52:30.246Z,19.69
2023-04-11T16:54:57.388Z,20.33
2023-04-11T16:57:25.265Z,20.11
2023-04-11T16:59:52.481Z,20.35
2023-04-11T17:02:19.593Z,19.12
2023-04-11T17:04:46.951Z,19.34
2023-04-11T17:07:14.380Z,19.83
2023-04-11T17:09:41.865Z,19.89
2023-04-11T17:12:08.981Z,20.02
2023-04-11T17:14:36.854Z,20.08
2023-04-11T17:17:04.309Z,19.49
2023-04-11T17:19:31.894Z,19.83
2023-04-11T17:21:59.039Z,19.76
2023-04-11T17:24:26.194Z,19.90
2023-04-11T17:26:53.802Z,19.90
2023-04-11T17:29:20.934Z,20.22
2023-04-11T17:31:48.577Z,20.27
2023-04-11T17:34:15.764Z,20.29
2023-04-11T17:36:43.334Z,20.10
2023-04-11T17:39:18.290Z,20.42
2023-04-11T17:41:46.291Z,19.81
2023-04-11T17:44:14.018Z,19.96
2023-04-11T17:46:42.071Z,20.32
2023-04-11T17:49:09.155Z,20.30
2023-04-11T17:51:43.071Z,20.77
2023-04-11T17:54:17.100Z,20.75
2023-04-11T17:56:44.389Z,20.68
2023-04-11T17:59:12.057Z,20.80
2023-04-11T18:01:39.504Z,20.81
2023-04-11T18:04:09.879Z,20.95
2023-04-11T18:06:37.082Z,20.82
2023-04-11T18:09:06.074Z,20.85
